Time;durP1;ratioP1;P1;durP2;ratioP2;P2;SDS_P1;SDS_P2;PMS_P1;PMS_P2;Temp;Humidity;BMP_temperature;BMP_pressure;BME280_temperature;BME280_humidity;BME280_pressure;Samples;Min_cycle;Max_cycle;Signal;HPM_P1;HPM_P2
2021/12/06 00:00:42;;;;;;;;;;;3.20;99.90;;;;;;4987089;28;21118;-74
2021/12/06 00:03:10;;;;;;;;;;;3.20;99.90;;;;;;4989084;28;20077;-73
2021/12/06 00:05:38;;;;;;;;;;;3.10;99.90;;;;;;4984043;28;20068;-74
2021/12/06 00:08:05;;;;;;;;;;;3.10;99.90;;;;;;4986225;28;21148;-74
2021/12/06 00:10:33;;;;;;;;;;;3.10;99.90;;;;;;4986743;28;21182;-73
2021/12/06 00:13:02;;;;;;;;;;;3.10;99.90;;;;;;4986430;28;21596;-74
2021/12/06 00:15:32;;;;;;;;;;;3.10;99.90;;;;;;4995539;28;20083;-73
2021/12/06 00:17:59;;;;;;;;;;;3.10;99.90;;;;;;4986196;28;20271;-73
2021/12/06 00:20:27;;;;;;;;;;;3.10;99.90;;;;;;4984606;28;21142;-73
2021/12/06 00:22:54;;;;;;;;;;;3.10;99.90;;;;;;4983412;28;20069;-74
2021/12/06 00:25:22;;;;;;;;;;;3.00;99.90;;;;;;4985942;28;20077;-73
2021/12/06 00:27:49;;;;;;;;;;;3.00;99.90;;;;;;4987778;28;20069;-73
2021/12/06 00:30:19;;;;;;;;;;;2.90;99.90;;;;;;4990819;28;20052;-75
2021/12/06 00:32:47;;;;;;;;;;;2.90;99.90;;;;;;5006243;28;21072;-73
2021/12/06 00:35:19;;;;;;;;;;;2.90;99.90;;;;;;4986785;28;20137;-73
2021/12/06 00:37:54;;;;;;;;;;;2.90;99.90;;;;;;5010017;28;20060;-73
2021/12/06 00:40:22;;;;;;;;;;;2.80;99.90;;;;;;4981132;28;20059;-74
2021/12/06 00:42:49;;;;;;;;;;;2.90;99.90;;;;;;4986017;28;21129;-74
2021/12/06 00:45:18;;;;;;;;;;;2.90;99.90;;;;;;4986342;28;20221;-73
2021/12/06 00:47:46;;;;;;;;;;;2.90;99.90;;;;;;4985575;28;20097;-74
2021/12/06 00:50:15;;;;;;;;;;;3.00;99.90;;;;;;4987375;28;21201;-74
2021/12/06 00:52:45;;;;;;;;;;;3.00;99.90;;;;;;4984791;28;21566;-74
2021/12/06 00:55:13;;;;;;;;;;;3.00;99.90;;;;;;4986327;28;20077;-74
2021/12/06 00:57:41;;;;;;;;;;;3.00;99.90;;;;;;4990904;28;20077;-73
2021/12/06 01:00:11;;;;;;;;;;;3.00;99.90;;;;;;5004220;28;20280;-74
2021/12/06 01:02:41;;;;;;;;;;;3.00;99.90;;;;;;5008816;28;20105;-74
2021/12/06 01:05:09;;;;;;;;;;;3.00;99.90;;;;;;4985122;28;20282;-74
2021/12/06 01:07:36;;;;;;;;;;;3.00;99.90;;;;;;4986524;28;20060;-74
2021/12/06 01:10:04;;;;;;;;;;;2.90;99.90;;;;;;4985625;28;21102;-73
2021/12/06 01:12:31;;;;;;;;;;;2.90;99.90;;;;;;4990878;28;20103;-74
2021/12/06 01:14:58;;;;;;;;;;;3.00;99.90;;;;;;4984780;28;20241;-73
2021/12/06 01:17:26;;;;;;;;;;;3.00;99.90;;;;;;4985347;28;20179;-74
2021/12/06 01:19:56;;;;;;;;;;;3.00;99.90;;;;;;4985056;28;20292;-74
2021/12/06 01:22:28;;;;;;;;;;;3.00;99.90;;;;;;4986525;28;20065;-73
2021/12/06 01:25:00;;;;;;;;;;;3.00;99.90;;;;;;4985974;28;20083;-73
2021/12/06 01:27:47;;;;;;;;;;;2.90;99.90;;;;;;4983593;28;20076;-74
2021/12/06 01:30:32;;;;;;;;;;;2.90;99.90;;;;;;4985853;28;20077;-74
2021/12/06 01:33:29;;;;;;;;;;;2.90;99.90;;;;;;4977193;28;20277;-73
2021/12/06 01:41:25;;;;;;;;;;;2.90;99.90;;;;;;4978983;28;20085;-73
2021/12/06 01:44:10;;;;;;;;;;;2.90;99.90;;;;;;4985317;28;20276;-73
2021/12/06 01:46:43;;;;;;;;;;;2.80;99.90;;;;;;4996986;28;20086;-73
2021/12/06 01:49:11;;;;;;;;;;;2.80;99.90;;;;;;4985015;28;20078;-76
2021/12/06 01:51:42;;;;;;;;;;;2.80;99.90;;;;;;4984057;28;20293;-74
2021/12/06 01:54:10;;;;;;;;;;;2.80;99.90;;;;;;4985826;28;20060;-74
2021/12/06 01:56:37;;;;;;;;;;;2.80;99.90;;;;;;4988916;28;20114;-74
2021/12/06 01:59:05;;;;;;;;;;;2.80;99.90;;;;;;4986534;28;21180;-74
2021/12/06 02:01:32;;;;;;;;;;;2.80;99.90;;;;;;5006554;28;20077;-74
2021/12/06 02:03:59;;;;;;;;;;;2.80;99.90;;;;;;4985826;28;20118;-73
2021/12/06 02:06:27;;;;;;;;;;;2.80;99.90;;;;;;4984714;28;21246;-73
2021/12/06 02:08:56;;;;;;;;;;;2.80;99.90;;;;;;4988024;28;20076;-74
2021/12/06 02:11:25;;;;;;;;;;;2.80;99.90;;;;;;4989450;28;20080;-74
2021/12/06 02:14:00;;;;;;;;;;;2.70;99.90;;;;;;5011048;28;20086;-73
2021/12/06 02:16:36;;;;;;;;;;;2.70;99.90;;;;;;4983125;28;20215;-74
2021/12/06 02:19:05;;;;;;;;;;;2.70;99.90;;;;;;4983753;28;20077;-74
2021/12/06 02:21:37;;;;;;;;;;;2.80;99.90;;;;;;4988352;28;20234;-74
2021/12/06 02:24:08;;;;;;;;;;;2.70;99.90;;;;;;4987381;28;20149;-73
2021/12/06 02:26:36;;;;;;;;;;;2.70;99.90;;;;;;4991227;28;20150;-74
2021/12/06 02:29:04;;;;;;;;;;;2.80;99.90;;;;;;4987230;28;20077;-74
2021/12/06 02:31:31;;;;;;;;;;;2.80;99.90;;;;;;4988250;28;21317;-73
2021/12/06 02:33:58;;;;;;;;;;;2.80;99.90;;;;;;4989455;28;20309;-73
2021/12/06 02:36:27;;;;;;;;;;;2.80;99.90;;;;;;4987181;28;20093;-74
2021/12/06 02:38:55;;;;;;;;;;;2.80;99.90;;;;;;4988206;28;20210;-74
2021/12/06 02:41:23;;;;;;;;;;;2.80;99.90;;;;;;4988685;28;21254;-74
2021/12/06 02:43:52;;;;;;;;;;;2.80;99.90;;;;;;4992429;28;21169;-73
2021/12/06 02:46:20;;;;;;;;;;;2.80;99.90;;;;;;4987207;28;20077;-74
2021/12/06 02:48:49;;;;;;;;;;;2.80;99.90;;;;;;4994041;28;20232;-73
2021/12/06 02:51:17;;;;;;;;;;;2.80;99.90;;;;;;4987704;28;20084;-74
2021/12/06 02:53:46;;;;;;;;;;;2.70;99.90;;;;;;4988359;28;20093;-73
2021/12/06 02:56:30;;;;;;;;;;;2.70;99.90;;;;;;5008059;28;20178;-73
2021/12/06 02:58:58;;;;;;;;;;;2.70;99.90;;;;;;4984641;28;20077;-73
2021/12/06 03:01:31;;;;;;;;;;;2.60;99.90;;;;;;4991947;28;20099;-73
2021/12/06 03:03:59;;;;;;;;;;;2.60;99.90;;;;;;4987828;28;20158;-72
2021/12/06 03:06:27;;;;;;;;;;;2.60;99.90;;;;;;4987379;28;20078;-74
2021/12/06 03:09:01;;;;;;;;;;;2.60;99.90;;;;;;4987153;28;21210;-72
2021/12/06 03:11:31;;;;;;;;;;;2.60;99.90;;;;;;4989775;28;20074;-74
2021/12/06 03:13:59;;;;;;;;;;;2.70;99.90;;;;;;4988177;28;20090;-73
2021/12/06 03:16:26;;;;;;;;;;;2.70;99.90;;;;;;4987018;28;21090;-74
2021/12/06 03:18:55;;;;;;;;;;;2.70;99.90;;;;;;4999849;28;20100;-74
2021/12/06 03:21:23;;;;;;;;;;;2.70;99.90;;;;;;4986492;28;20092;-73
2021/12/06 03:23:52;;;;;;;;;;;2.70;99.90;;;;;;4988160;28;20221;-74
2021/12/06 03:26:19;;;;;;;;;;;2.60;99.90;;;;;;5001311;28;20182;-74
2021/12/06 03:28:49;;;;;;;;;;;2.60;99.90;;;;;;4985543;28;20068;-74
2021/12/06 03:31:19;;;;;;;;;;;2.50;99.90;;;;;;4987467;28;21180;-72
2021/12/06 03:33:47;;;;;;;;;;;2.40;99.90;;;;;;4991074;28;20076;-74
2021/12/06 03:36:16;;;;;;;;;;;2.40;99.90;;;;;;4986987;28;20121;-74
2021/12/06 03:38:43;;;;;;;;;;;2.40;99.90;;;;;;4987533;28;20216;-73
2021/12/06 03:41:12;;;;;;;;;;;2.50;99.90;;;;;;4988037;28;20068;-74
2021/12/06 03:43:41;;;;;;;;;;;2.50;99.90;;;;;;4986973;28;21142;-75
2021/12/06 03:46:11;;;;;;;;;;;2.50;99.90;;;;;;5007161;28;21269;-74
2021/12/06 03:48:40;;;;;;;;;;;2.60;99.90;;;;;;4986758;28;20091;-72
2021/12/06 03:51:08;;;;;;;;;;;2.60;99.90;;;;;;4988195;28;20178;-74
2021/12/06 03:53:35;;;;;;;;;;;2.60;99.90;;;;;;5007675;28;20068;-72
2021/12/06 03:56:03;;;;;;;;;;;2.60;99.90;;;;;;4994555;28;20139;-73
2021/12/06 03:58:31;;;;;;;;;;;2.50;99.90;;;;;;4990782;28;20211;-74
2021/12/06 04:01:00;;;;;;;;;;;2.50;99.90;;;;;;4993078;28;20215;-74
2021/12/06 04:03:29;;;;;;;;;;;2.50;99.90;;;;;;4987627;28;20076;-73
2021/12/06 04:05:57;;;;;;;;;;;2.60;99.90;;;;;;4986492;28;21181;-73
2021/12/06 04:08:25;;;;;;;;;;;2.50;99.90;;;;;;4986211;28;20085;-74
2021/12/06 04:10:55;;;;;;;;;;;2.60;99.90;;;;;;4983771;28;20305;-74
2021/12/06 04:13:23;;;;;;;;;;;2.60;99.90;;;;;;5002490;28;20083;-74
2021/12/06 04:15:52;;;;;;;;;;;2.60;99.90;;;;;;4986982;28;20450;-74
2021/12/06 04:18:20;;;;;;;;;;;2.50;99.90;;;;;;4984697;28;20223;-74
2021/12/06 04:20:49;;;;;;;;;;;2.50;99.90;;;;;;4990358;28;20085;-74
2021/12/06 04:23:16;;;;;;;;;;;2.60;99.90;;;;;;4986525;28;21264;-74
2021/12/06 04:25:44;;;;;;;;;;;2.50;99.90;;;;;;4986551;28;21186;-74
2021/12/06 04:28:14;;;;;;;;;;;2.50;99.90;;;;;;4985736;28;20094;-74
2021/12/06 04:30:43;;;;;;;;;;;2.60;99.90;;;;;;4990433;28;20076;-74
2021/12/06 04:33:12;;;;;;;;;;;2.50;99.90;;;;;;4987411;28;20077;-74
2021/12/06 04:35:39;;;;;;;;;;;2.50;99.90;;;;;;4986649;28;20170;-74
2021/12/06 04:38:10;;;;;;;;;;;2.50;99.90;;;;;;4986378;28;20061;-74
2021/12/06 04:40:37;;;;;;;;;;;2.50;99.90;;;;;;4988345;28;20076;-74
2021/12/06 04:43:06;;;;;;;;;;;2.40;99.90;;;;;;4987000;28;20090;-73
2021/12/06 04:45:33;;;;;;;;;;;2.40;99.90;;;;;;4985607;28;20077;-73
2021/12/06 04:48:01;;;;;;;;;;;2.40;99.90;;;;;;4986455;28;20072;-74
2021/12/06 04:50:31;;;;;;;;;;;2.30;99.90;;;;;;4986930;28;20097;-74
2021/12/06 04:53:01;;;;;;;;;;;2.30;99.90;;;;;;4996615;28;21203;-74
2021/12/06 04:55:32;;;;;;;;;;;2.30;99.90;;;;;;4986627;28;20105;-73
2021/12/06 04:57:59;;;;;;;;;;;2.30;99.90;;;;;;4986429;28;20666;-74
2021/12/06 05:00:28;;;;;;;;;;;2.30;99.90;;;;;;4987097;28;20311;-73
2021/12/06 05:02:56;;;;;;;;;;;2.20;99.90;;;;;;4986148;28;21056;-74
2021/12/06 05:05:27;;;;;;;;;;;2.20;99.90;;;;;;4992064;28;20092;-73
2021/12/06 05:07:57;;;;;;;;;;;2.20;99.90;;;;;;5004451;28;20108;-74
2021/12/06 05:10:24;;;;;;;;;;;2.20;99.90;;;;;;4987733;28;20093;-73
2021/12/06 05:12:53;;;;;;;;;;;2.30;99.90;;;;;;4986236;28;21112;-72
2021/12/06 05:15:20;;;;;;;;;;;2.30;99.90;;;;;;5007050;28;20145;-74
2021/12/06 05:17:47;;;;;;;;;;;2.30;99.90;;;;;;4986062;28;20103;-73
2021/12/06 05:20:16;;;;;;;;;;;2.30;99.90;;;;;;4985147;28;20090;-74
2021/12/06 05:22:46;;;;;;;;;;;2.30;99.90;;;;;;4986004;28;20074;-73
2021/12/06 05:25:14;;;;;;;;;;;2.20;99.90;;;;;;4986647;28;20149;-71
2021/12/06 05:27:43;;;;;;;;;;;2.20;99.90;;;;;;4987495;28;20168;-74
2021/12/06 05:30:14;;;;;;;;;;;2.20;99.90;;;;;;4990806;28;20105;-76
2021/12/06 05:32:42;;;;;;;;;;;2.20;99.90;;;;;;4989539;28;20221;-73
2021/12/06 05:35:10;;;;;;;;;;;2.10;99.90;;;;;;4993050;28;20190;-73
2021/12/06 05:37:40;;;;;;;;;;;2.10;99.90;;;;;;4989978;28;20077;-76
2021/12/06 05:40:09;;;;;;;;;;;2.10;99.90;;;;;;5007209;28;21232;-74
2021/12/06 05:42:36;;;;;;;;;;;2.00;99.90;;;;;;4989820;28;20077;-75
2021/12/06 05:45:03;;;;;;;;;;;2.00;99.90;;;;;;4990390;28;20077;-73
2021/12/06 05:47:32;;;;;;;;;;;2.00;99.90;;;;;;4989513;28;20060;-74
2021/12/06 05:49:59;;;;;;;;;;;2.00;99.90;;;;;;4992229;28;21110;-73
2021/12/06 05:52:26;;;;;;;;;;;2.00;99.90;;;;;;4990094;28;21060;-74
2021/12/06 05:54:53;;;;;;;;;;;2.00;99.90;;;;;;4990867;28;21099;-73
2021/12/06 05:57:21;;;;;;;;;;;1.90;99.90;;;;;;4991471;28;20117;-74
2021/12/06 05:59:48;;;;;;;;;;;1.90;99.90;;;;;;4988808;28;20084;-73
2021/12/06 06:02:17;;;;;;;;;;;1.90;99.90;;;;;;4983181;28;20175;-73
2021/12/06 06:04:46;;;;;;;;;;;1.80;99.90;;;;;;4990898;28;20074;-74
2021/12/06 06:07:13;;;;;;;;;;;1.90;99.90;;;;;;4988790;28;20077;-74
2021/12/06 06:09:40;;;;;;;;;;;1.90;99.90;;;;;;4988656;28;20232;-78
2021/12/06 06:12:07;;;;;;;;;;;1.80;99.90;;;;;;4987927;28;20116;-74
2021/12/06 06:14:34;;;;;;;;;;;1.80;99.90;;;;;;4988450;28;20098;-74
2021/12/06 06:17:09;;;;;;;;;;;1.80;99.90;;;;;;4988810;28;20068;-73
2021/12/06 06:19:36;;;;;;;;;;;1.80;99.90;;;;;;4988193;28;20076;-71
2021/12/06 06:22:05;;;;;;;;;;;1.80;99.90;;;;;;4988214;28;20078;-74
2021/12/06 06:24:32;;;;;;;;;;;1.80;99.90;;;;;;4987932;28;20077;-74
2021/12/06 06:27:00;;;;;;;;;;;1.90;99.90;;;;;;4988076;28;20073;-74
2021/12/06 06:29:27;;;;;;;;;;;1.90;99.90;;;;;;4988115;28;20069;-74
2021/12/06 06:31:54;;;;;;;;;;;1.90;99.90;;;;;;4988715;28;21154;-75
2021/12/06 06:34:22;;;;;;;;;;;2.00;99.90;;;;;;4988824;28;20084;-75
2021/12/06 06:36:50;;;;;;;;;;;2.00;99.90;;;;;;4988376;28;21346;-74
2021/12/06 06:39:21;;;;;;;;;;;2.00;99.90;;;;;;4986147;28;20113;-75
2021/12/06 06:41:48;;;;;;;;;;;1.90;99.90;;;;;;4985323;28;20075;-75
2021/12/06 06:44:17;;;;;;;;;;;2.00;99.90;;;;;;4995865;28;20170;-75
2021/12/06 06:46:45;;;;;;;;;;;1.90;99.90;;;;;;4988046;28;21335;-75
2021/12/06 06:49:13;;;;;;;;;;;2.00;99.90;;;;;;4987645;28;20069;-74
2021/12/06 06:51:40;;;;;;;;;;;1.90;99.90;;;;;;4987287;28;20060;-74
2021/12/06 06:54:08;;;;;;;;;;;1.90;99.90;;;;;;4988461;28;20052;-74
2021/12/06 06:56:36;;;;;;;;;;;2.00;99.90;;;;;;4987777;28;20096;-76
2021/12/06 06:59:04;;;;;;;;;;;2.00;99.90;;;;;;4987190;28;20051;-75
2021/12/06 07:01:31;;;;;;;;;;;2.00;99.90;;;;;;4990578;28;21387;-74
2021/12/06 07:03:59;;;;;;;;;;;2.00;99.90;;;;;;4988080;28;21187;-74
2021/12/06 07:06:26;;;;;;;;;;;2.00;99.90;;;;;;4987814;28;21208;-74
2021/12/06 07:08:54;;;;;;;;;;;2.00;99.90;;;;;;4987437;28;20060;-75
2021/12/06 07:11:21;;;;;;;;;;;2.00;99.90;;;;;;4987422;28;20210;-74
2021/12/06 07:13:50;;;;;;;;;;;2.00;99.90;;;;;;5003325;28;21315;-73
2021/12/06 07:16:18;;;;;;;;;;;2.10;99.90;;;;;;4987152;28;20091;-74
2021/12/06 07:18:45;;;;;;;;;;;2.10;99.90;;;;;;4986579;28;21277;-74
2021/12/06 07:21:12;;;;;;;;;;;2.10;99.90;;;;;;4987904;28;20051;-74
2021/12/06 07:23:40;;;;;;;;;;;2.10;99.90;;;;;;4987106;28;20068;-74
2021/12/06 07:26:07;;;;;;;;;;;2.10;99.90;;;;;;4987398;28;20075;-75
2021/12/06 07:28:34;;;;;;;;;;;2.10;99.90;;;;;;4986863;28;20068;-74
2021/12/06 07:31:05;;;;;;;;;;;2.10;99.90;;;;;;4987638;28;20069;-74
2021/12/06 07:33:33;;;;;;;;;;;2.10;99.90;;;;;;5000791;28;20072;-74
2021/12/06 07:36:00;;;;;;;;;;;2.20;99.90;;;;;;4986313;28;21096;-75
2021/12/06 07:38:27;;;;;;;;;;;2.20;99.90;;;;;;4988607;28;21166;-76
2021/12/06 07:40:55;;;;;;;;;;;2.20;99.90;;;;;;4990551;28;21117;-74
2021/12/06 07:43:22;;;;;;;;;;;2.20;99.90;;;;;;4994735;28;20069;-74
2021/12/06 07:45:49;;;;;;;;;;;2.20;99.90;;;;;;4986427;28;20108;-75
2021/12/06 07:48:18;;;;;;;;;;;2.20;99.90;;;;;;4987054;28;20260;-75
2021/12/06 07:50:45;;;;;;;;;;;2.20;99.90;;;;;;4983159;28;20084;-75
2021/12/06 07:53:12;;;;;;;;;;;2.20;99.90;;;;;;5026272;22;20068;-70
2021/12/06 07:55:39;;;;;;;;;;;2.30;99.90;;;;;;5046674;28;20051;-73
2021/12/06 07:58:07;;;;;;;;;;;2.30;99.90;;;;;;5047486;28;20076;-73
2021/12/06 08:00:35;;;;;;;;;;;2.30;99.90;;;;;;5053790;27;20075;-73
2021/12/06 08:03:02;;;;;;;;;;;2.30;99.90;;;;;;5032345;28;20068;-73
2021/12/06 08:05:32;;;;;;;;;;;2.30;99.90;;;;;;5039337;28;20059;-73
2021/12/06 08:08:01;;;;;;;;;;;2.30;99.90;;;;;;5028167;28;21165;-73
2021/12/06 08:10:28;;;;;;;;;;;2.30;99.90;;;;;;5025915;28;21009;-74
2021/12/06 08:12:55;;;;;;;;;;;2.30;99.90;;;;;;5016127;28;21168;-73
2021/12/06 08:15:22;;;;;;;;;;;2.40;99.90;;;;;;5019752;28;21123;-73
2021/12/06 08:17:49;;;;;;;;;;;2.50;99.90;;;;;;5037359;28;21105;-72
2021/12/06 08:20:16;;;;;;;;;;;2.50;99.90;;;;;;5013843;28;20156;-72
2021/12/06 08:22:45;;;;;;;;;;;2.50;99.90;;;;;;5026919;28;20067;-73
2021/12/06 08:25:13;;;;;;;;;;;2.50;99.90;;;;;;5027679;28;21208;-72
2021/12/06 08:27:41;;;;;;;;;;;2.60;99.90;;;;;;5009577;28;21112;-72
2021/12/06 08:30:08;;;;;;;;;;;2.60;99.90;;;;;;5026768;28;20075;-73
2021/12/06 08:32:36;;;;;;;;;;;2.60;99.90;;;;;;5031459;28;20067;-72
2021/12/06 08:35:04;;;;;;;;;;;2.60;99.90;;;;;;5032258;28;20156;-72
2021/12/06 08:37:31;;;;;;;;;;;2.50;99.90;;;;;;5030301;28;20114;-73
2021/12/06 08:40:00;;;;;;;;;;;2.50;99.90;;;;;;5025657;28;20083;-73
2021/12/06 08:42:27;;;;;;;;;;;2.50;99.90;;;;;;5035881;28;20076;-73
2021/12/06 08:44:54;;;;;;;;;;;2.60;99.90;;;;;;5030037;28;20084;-73
2021/12/06 08:47:22;;;;;;;;;;;2.70;99.90;;;;;;5036601;28;20793;-73
2021/12/06 08:49:50;;;;;;;;;;;2.80;99.90;;;;;;5033723;28;20059;-73
2021/12/06 08:52:17;;;;;;;;;;;2.80;99.90;;;;;;5034122;28;20068;-73
2021/12/06 08:54:44;;;;;;;;;;;2.90;99.90;;;;;;5023234;28;20068;-73
2021/12/06 08:57:13;;;;;;;;;;;2.90;99.90;;;;;;5031083;28;21223;-73
2021/12/06 08:59:40;;;;;;;;;;;3.00;99.90;;;;;;5028584;28;20068;-72
2021/12/06 09:02:07;;;;;;;;;;;3.00;99.90;;;;;;5025991;28;20075;-72
2021/12/06 09:04:37;;;;;;;;;;;3.20;99.90;;;;;;5038780;28;20067;-72
2021/12/06 09:07:10;;;;;;;;;;;3.20;99.90;;;;;;5031519;28;20096;-72
2021/12/06 09:09:37;;;;;;;;;;;3.20;99.90;;;;;;5036252;28;20067;-72
2021/12/06 09:12:04;;;;;;;;;;;3.40;99.90;;;;;;5031693;28;20169;-72
2021/12/06 09:14:33;;;;;;;;;;;3.40;99.90;;;;;;5036019;28;20067;-73
2021/12/06 09:17:00;;;;;;;;;;;3.50;99.90;;;;;;5030176;28;20147;-73
2021/12/06 09:19:27;;;;;;;;;;;3.50;99.90;;;;;;5038153;28;20067;-72
2021/12/06 09:21:54;;;;;;;;;;;3.70;99.90;;;;;;5022336;28;20353;-72
2021/12/06 09:24:21;;;;;;;;;;;3.80;99.90;;;;;;5033874;28;20168;-72
2021/12/06 09:26:48;;;;;;;;;;;4.00;99.90;;;;;;5031782;28;20198;-72
2021/12/06 09:29:15;;;;;;;;;;;4.20;99.90;;;;;;5032150;28;20069;-72
2021/12/06 09:31:44;;;;;;;;;;;4.30;99.90;;;;;;5035958;28;20108;-71
2021/12/06 09:34:12;;;;;;;;;;;4.20;99.90;;;;;;5032822;28;20075;-72
2021/12/06 09:36:39;;;;;;;;;;;4.10;99.90;;;;;;5040809;28;21160;-72
2021/12/06 09:39:06;;;;;;;;;;;3.90;99.90;;;;;;5037552;28;21157;-72
2021/12/06 09:41:34;;;;;;;;;;;3.80;99.90;;;;;;5023483;28;20116;-72
2021/12/06 09:44:02;;;;;;;;;;;3.70;99.90;;;;;;5026171;28;20149;-72
2021/12/06 09:46:34;;;;;;;;;;;3.70;99.90;;;;;;5032096;28;20170;-72
2021/12/06 09:49:05;;;;;;;;;;;3.70;99.90;;;;;;5037177;28;20068;-72
2021/12/06 09:51:32;;;;;;;;;;;3.60;99.90;;;;;;5033188;28;20099;-72
2021/12/06 09:54:00;;;;;;;;;;;3.50;99.90;;;;;;5033030;28;20075;-72
2021/12/06 09:56:28;;;;;;;;;;;3.40;99.90;;;;;;5033458;28;20060;-72
2021/12/06 09:58:56;;;;;;;;;;;3.30;99.90;;;;;;5041349;28;20076;-72
2021/12/06 10:01:24;;;;;;;;;;;3.40;99.90;;;;;;5029959;28;20076;-72
2021/12/06 10:03:53;;;;;;;;;;;3.40;99.90;;;;;;5035335;28;20067;-72
2021/12/06 10:06:23;;;;;;;;;;;3.40;99.90;;;;;;5030665;28;21196;-72
2021/12/06 10:08:51;;;;;;;;;;;3.40;99.90;;;;;;5028842;28;20059;-72
2021/12/06 10:11:19;;;;;;;;;;;3.50;99.90;;;;;;5030853;28;20067;-72
2021/12/06 10:13:46;;;;;;;;;;;3.50;99.90;;;;;;5022271;28;20075;-72
2021/12/06 10:16:14;;;;;;;;;;;3.70;99.90;;;;;;5036270;28;20068;-72
2021/12/06 10:18:41;;;;;;;;;;;3.90;99.90;;;;;;5036073;28;20158;-72
2021/12/06 10:21:09;;;;;;;;;;;4.30;99.90;;;;;;5026948;28;20083;-72
2021/12/06 10:23:38;;;;;;;;;;;4.60;99.90;;;;;;5042093;28;20076;-72
2021/12/06 10:26:05;;;;;;;;;;;5.30;99.90;;;;;;5037558;28;20169;-72
2021/12/06 10:28:32;;;;;;;;;;;5.80;99.90;;;;;;5031810;28;20157;-72
2021/12/06 10:31:01;;;;;;;;;;;6.20;99.90;;;;;;5029203;28;20141;-70
2021/12/06 10:33:29;;;;;;;;;;;7.10;99.90;;;;;;5041440;28;20074;-70
2021/12/06 10:35:57;;;;;;;;;;;8.90;99.90;;;;;;5020358;28;20527;-70
2021/12/06 10:38:25;;;;;;;;;;;11.70;99.90;;;;;;5023738;28;20075;-70
2021/12/06 10:40:58;;;;;;;;;;;13.70;99.90;;;;;;5022689;28;21159;-71
2021/12/06 10:43:25;;;;;;;;;;;14.80;99.90;;;;;;5030123;28;21131;-71
2021/12/06 10:45:55;;;;;;;;;;;15.40;99.90;;;;;;5038566;28;20071;-71
2021/12/06 10:48:23;;;;;;;;;;;15.50;99.90;;;;;;5036054;28;20076;-71
2021/12/06 10:50:57;;;;;;;;;;;15.90;99.90;;;;;;5036734;28;20153;-71
2021/12/06 10:53:25;;;;;;;;;;;17.20;99.90;;;;;;5039773;28;20068;-71
2021/12/06 10:55:54;;;;;;;;;;;17.20;99.90;;;;;;5038819;28;21350;-71
2021/12/06 10:58:23;;;;;;;;;;;17.10;99.90;;;;;;5040137;28;20083;-70
2021/12/06 11:00:51;;;;;;;;;;;17.50;99.90;;;;;;5033743;28;20076;-71
2021/12/06 11:03:20;;;;;;;;;;;16.40;99.90;;;;;;5037681;28;20068;-71
2021/12/06 11:05:49;;;;;;;;;;;15.30;99.90;;;;;;5042339;28;20068;-71
2021/12/06 11:08:18;;;;;;;;;;;13.00;99.90;;;;;;5032970;28;20274;-71
2021/12/06 11:10:46;;;;;;;;;;;11.70;99.90;;;;;;5039609;28;20100;-71
2021/12/06 11:13:17;;;;;;;;;;;12.30;99.90;;;;;;5024801;28;20099;-71
2021/12/06 11:16:08;;;;;;;;;;;13.80;99.90;;;;;;5009539;28;21120;-71
2021/12/06 11:18:49;;;;;;;;;;;15.40;99.90;;;;;;5009750;28;20076;-72
2021/12/06 11:21:18;;;;;;;;;;;16.00;99.90;;;;;;5027002;28;20075;-69
2021/12/06 11:24:04;;;;;;;;;;;14.40;99.90;;;;;;5038945;28;20068;-71
2021/12/06 11:26:32;;;;;;;;;;;14.80;99.90;;;;;;5033406;28;20064;-71
2021/12/06 11:29:04;;;;;;;;;;;16.20;99.90;;;;;;5032530;28;21143;-72
2021/12/06 11:31:31;;;;;;;;;;;17.50;99.90;;;;;;5041367;28;20090;-72
2021/12/06 11:34:01;;;;;;;;;;;18.10;99.90;;;;;;5023925;28;20269;-72
2021/12/06 11:36:30;;;;;;;;;;;18.80;99.90;;;;;;5043448;28;20175;-72
2021/12/06 11:39:04;;;;;;;;;;;17.70;99.90;;;;;;5033878;28;20067;-71
2021/12/06 11:41:31;;;;;;;;;;;17.40;99.90;;;;;;5030247;28;20059;-70
2021/12/06 11:43:59;;;;;;;;;;;18.60;99.90;;;;;;5033433;28;21175;-70
2021/12/06 11:46:32;;;;;;;;;;;17.60;99.90;;;;;;5026559;28;20113;-70
2021/12/06 11:49:00;;;;;;;;;;;17.10;99.90;;;;;;5017084;28;20075;-71
2021/12/06 11:51:28;;;;;;;;;;;17.60;99.90;;;;;;5017733;28;21010;-70
2021/12/06 11:53:57;;;;;;;;;;;17.70;99.90;;;;;;5011980;28;20083;-70
2021/12/06 11:56:26;;;;;;;;;;;15.10;99.90;;;;;;5016720;28;20078;-70
2021/12/06 11:58:55;;;;;;;;;;;14.80;99.90;;;;;;5019686;28;20083;-70
2021/12/06 12:01:25;;;;;;;;;;;17.10;99.90;;;;;;5036462;28;20152;-71
2021/12/06 12:03:53;;;;;;;;;;;18.60;99.90;;;;;;5028499;28;20076;-71
2021/12/06 12:06:27;;;;;;;;;;;16.30;99.90;;;;;;5034538;28;20069;-70
2021/12/06 12:09:05;;;;;;;;;;;15.10;99.90;;;;;;5036355;28;20059;-71
2021/12/06 12:11:32;;;;;;;;;;;17.00;99.90;;;;;;5026866;28;20210;-70
2021/12/06 12:14:10;;;;;;;;;;;19.00;99.90;;;;;;5030366;28;21101;-72
2021/12/06 12:16:37;;;;;;;;;;;20.50;99.90;;;;;;5034854;28;20084;-71
2021/12/06 12:19:04;;;;;;;;;;;21.20;99.90;;;;;;5030090;28;20075;-72
2021/12/06 12:21:33;;;;;;;;;;;21.50;99.90;;;;;;5035462;28;20068;-71
2021/12/06 12:24:00;;;;;;;;;;;21.50;99.90;;;;;;5034529;28;20132;-71
2021/12/06 12:26:27;;;;;;;;;;;21.20;99.90;;;;;;5033226;28;20076;-72
2021/12/06 12:29:00;;;;;;;;;;;22.50;99.90;;;;;;5016869;28;21180;-72
2021/12/06 12:31:30;;;;;;;;;;;22.50;99.90;;;;;;5021590;28;20075;-71
2021/12/06 12:33:57;;;;;;;;;;;21.80;99.90;;;;;;5021343;28;20262;-70
2021/12/06 12:36:25;;;;;;;;;;;20.90;99.90;;;;;;5034715;28;20082;-71
2021/12/06 12:38:57;;;;;;;;;;;20.50;99.90;;;;;;5019367;28;21077;-71
2021/12/06 12:41:28;;;;;;;;;;;21.30;99.90;;;;;;5031634;28;20094;-72
2021/12/06 12:44:01;;;;;;;;;;;21.70;99.90;;;;;;5027191;28;20068;-72
2021/12/06 12:46:33;;;;;;;;;;;22.20;99.90;;;;;;5028223;28;20068;-71
2021/12/06 12:49:01;;;;;;;;;;;19.90;99.90;;;;;;5030653;28;20056;-71
2021/12/06 12:51:30;;;;;;;;;;;18.10;99.90;;;;;;5032803;28;21204;-71
2021/12/06 12:54:02;;;;;;;;;;;19.80;99.90;;;;;;5034534;28;20177;-72
2021/12/06 12:56:30;;;;;;;;;;;20.30;99.90;;;;;;5030769;28;21035;-71
2021/12/06 12:58:59;;;;;;;;;;;20.70;99.90;;;;;;5025575;28;20092;-71
2021/12/06 13:01:27;;;;;;;;;;;19.90;99.90;;;;;;5040543;28;21149;-72
2021/12/06 13:03:56;;;;;;;;;;;19.40;99.90;;;;;;5021563;28;20157;-71
2021/12/06 13:06:25;;;;;;;;;;;18.60;99.90;;;;;;5029889;28;21171;-71
2021/12/06 13:08:54;;;;;;;;;;;17.90;99.90;;;;;;5013568;28;20153;-71
2021/12/06 13:11:24;;;;;;;;;;;16.30;99.90;;;;;;5028346;28;20064;-71
2021/12/06 13:13:51;;;;;;;;;;;15.60;99.90;;;;;;5033029;28;20107;-71
2021/12/06 13:16:28;;;;;;;;;;;15.70;99.90;;;;;;5035372;28;20059;-71
2021/12/06 13:19:05;;;;;;;;;;;16.10;99.90;;;;;;5022279;28;21090;-70
2021/12/06 13:21:51;;;;;;;;;;;17.70;99.90;;;;;;5032086;28;20074;-71
2021/12/06 13:24:36;;;;;;;;;;;18.80;99.90;;;;;;5027170;28;20074;-71
2021/12/06 13:27:08;;;;;;;;;;;19.50;99.90;;;;;;5031572;28;21028;-71
2021/12/06 13:29:46;;;;;;;;;;;19.20;99.90;;;;;;5024236;28;20081;-70
2021/12/06 13:32:32;;;;;;;;;;;18.90;99.90;;;;;;5035945;28;21134;-71
2021/12/06 13:35:14;;;;;;;;;;;17.80;99.90;;;;;;5034086;28;21133;-77
2021/12/06 13:37:41;;;;;;;;;;;16.20;99.90;;;;;;5029740;28;20256;-71
2021/12/06 13:40:14;;;;;;;;;;;14.70;99.90;;;;;;5025987;28;20075;-71
2021/12/06 13:42:44;;;;;;;;;;;13.40;99.90;;;;;;5029256;28;20050;-71
2021/12/06 13:45:16;;;;;;;;;;;13.10;99.90;;;;;;5032508;28;20083;-71
2021/12/06 13:47:47;;;;;;;;;;;14.00;99.90;;;;;;5030495;28;20067;-70
2021/12/06 13:50:16;;;;;;;;;;;12.30;99.90;;;;;;5032970;28;20157;-71
2021/12/06 13:52:43;;;;;;;;;;;10.70;99.90;;;;;;5036762;28;20057;-73
2021/12/06 13:55:21;;;;;;;;;;;9.70;99.90;;;;;;5038249;28;20067;-72
2021/12/06 13:57:51;;;;;;;;;;;8.70;99.90;;;;;;5040836;28;20145;-72
2021/12/06 14:00:23;;;;;;;;;;;7.90;99.90;;;;;;5023420;28;20077;-72
2021/12/06 14:02:51;;;;;;;;;;;7.50;99.90;;;;;;5037786;28;20064;-72
2021/12/06 14:05:18;;;;;;;;;;;7.10;99.90;;;;;;5039053;28;20096;-72
2021/12/06 14:07:45;;;;;;;;;;;6.80;99.90;;;;;;5037526;28;20066;-72
2021/12/06 14:10:14;;;;;;;;;;;6.50;99.90;;;;;;5037400;28;20073;-72
2021/12/06 14:12:42;;;;;;;;;;;6.30;99.90;;;;;;5039820;28;20329;-72
2021/12/06 14:15:18;;;;;;;;;;;6.20;99.90;;;;;;5034966;28;20075;-72
2021/12/06 14:17:46;;;;;;;;;;;6.10;99.90;;;;;;5034065;28;20204;-72
2021/12/06 14:20:14;;;;;;;;;;;6.00;99.90;;;;;;5038315;28;20076;-72
2021/12/06 14:22:42;;;;;;;;;;;5.90;99.90;;;;;;5019610;28;20066;-72
2021/12/06 14:25:12;;;;;;;;;;;5.80;99.90;;;;;;5023000;28;21182;-73
2021/12/06 14:27:39;;;;;;;;;;;5.70;99.90;;;;;;5028631;28;20093;-72
2021/12/06 14:30:07;;;;;;;;;;;5.70;99.90;;;;;;5041651;28;20076;-72
2021/12/06 14:32:36;;;;;;;;;;;5.60;99.90;;;;;;5030671;28;20111;-72
2021/12/06 14:35:03;;;;;;;;;;;5.50;99.90;;;;;;5030705;28;20068;-72
2021/12/06 14:37:30;;;;;;;;;;;5.40;99.90;;;;;;5036215;28;21169;-72
2021/12/06 14:39:59;;;;;;;;;;;5.40;99.90;;;;;;5038528;28;21156;-72
2021/12/06 14:42:27;;;;;;;;;;;5.30;99.90;;;;;;5037789;28;21152;-72